Terminal Aerodrome Forecast
Issued by NWS

Home | Current Version | Previous Version | Graphics & Text | Print | Product List | Glossary On
Versions: 1 2 3 4 5 6 7 8 9 10 11 12 13 14 15 16 17 18 19 20
000
FTUS43 KBIS 191400 AAB
TAFMOT
TAF AMD
KMOT 191413Z 1914/2012 25011KT P6SM OVC110
     FM191700 28017G26KT P6SM SCT140
     FM192200 29020G30KT P6SM VCTS SCT100CB
     FM200200 29012KT P6SM BKN080=

USA.gov is the U.S. government's official web portal to all federal, state and local government web resources and services.